Time;durP1;ratioP1;P1;durP2;ratioP2;P2;SDS_P1;SDS_P2;PMS_P1;PMS_P2;Temp;Humidity;BMP_temperature;BMP_pressure;BME280_temperature;BME280_humidity;BME280_pressure;Samples;Min_cycle;Max_cycle;Signal;HPM_P1;HPM_P2
2023/02/05 00:02:06;;;;;;;3.67;2.47;;;-1.30;99.90;;;;;;5019608;28;20377;-60
2023/02/05 00:04:32;;;;;;;4.68;2.58;;;-1.30;99.90;;;;;;5020106;28;20025;-59
2023/02/05 00:06:58;;;;;;;4.65;2.78;;;-1.30;99.90;;;;;;5018664;28;20026;-62
2023/02/05 00:09:23;;;;;;;3.05;2.38;;;-1.30;99.90;;;;;;5019738;28;20021;-62
2023/02/05 00:11:49;;;;;;;4.43;2.70;;;-1.40;99.90;;;;;;5019340;28;20092;-61
2023/02/05 00:14:14;;;;;;;3.70;2.28;;;-1.30;99.90;;;;;;5019831;28;20100;-60
2023/02/05 00:16:40;;;;;;;3.55;2.17;;;-1.30;99.90;;;;;;5020395;28;20543;-60
2023/02/05 00:19:05;;;;;;;3.72;2.25;;;-1.40;99.90;;;;;;5019582;28;20060;-61
2023/02/05 00:21:31;;;;;;;3.65;2.80;;;-1.30;99.90;;;;;;5019225;28;20034;-61
2023/02/05 00:23:56;;;;;;;2.63;2.10;;;-1.40;99.90;;;;;;5019849;28;20076;-59
2023/02/05 00:26:22;;;;;;;2.67;2.28;;;-1.40;99.90;;;;;;5020605;28;20433;-61
2023/02/05 00:28:48;;;;;;;3.72;2.38;;;-1.40;99.90;;;;;;5019633;28;20030;-60
2023/02/05 00:31:21;;;;;;;3.08;2.10;;;-1.40;99.90;;;;;;5019656;28;20096;-61
2023/02/05 00:33:47;;;;;;;3.60;2.42;;;-1.40;99.90;;;;;;5019463;28;20514;-61
2023/02/05 00:36:13;;;;;;;3.97;2.20;;;-1.40;99.90;;;;;;5018344;28;20104;-60
2023/02/05 00:38:41;;;;;;;3.63;2.45;;;-1.50;99.90;;;;;;5019723;28;20072;-60
2023/02/05 00:41:06;;;;;;;4.25;2.75;;;-1.40;99.90;;;;;;5019302;28;20026;-62
2023/02/05 00:43:32;;;;;;;4.63;2.60;;;-1.50;99.90;;;;;;5019612;28;20029;-61
2023/02/05 00:45:57;;;;;;;3.00;2.65;;;-1.50;99.90;;;;;;5018686;28;20400;-61
2023/02/05 00:48:23;;;;;;;2.38;2.17;;;-1.50;99.90;;;;;;5019166;28;20029;-60
2023/02/05 00:50:49;;;;;;;3.75;2.38;;;-1.50;99.90;;;;;;5016353;28;20029;-60
2023/02/05 00:53:16;;;;;;;2.53;2.30;;;-1.60;99.90;;;;;;5017048;28;20517;-61
2023/02/05 00:55:41;;;;;;;4.63;2.35;;;-1.60;99.90;;;;;;5019165;28;20482;-61
2023/02/05 00:58:07;;;;;;;2.45;2.22;;;-1.60;99.90;;;;;;5018852;28;20033;-58
2023/02/05 01:00:32;;;;;;;2.97;2.45;;;-1.60;99.90;;;;;;5019510;28;20475;-61
2023/02/05 01:02:59;;;;;;;3.67;2.25;;;-1.60;99.90;;;;;;5020006;28;20033;-60
2023/02/05 01:05:24;;;;;;;3.85;2.25;;;-1.60;99.90;;;;;;5018954;28;20025;-61
2023/02/05 01:07:50;;;;;;;3.80;2.17;;;-1.60;99.90;;;;;;5018012;28;20392;-62
2023/02/05 01:10:16;;;;;;;2.38;1.80;;;-1.70;99.90;;;;;;5017321;28;20033;-60
2023/02/05 01:12:41;;;;;;;2.67;2.10;;;-1.70;99.90;;;;;;5018449;28;20030;-58
2023/02/05 01:15:10;;;;;;;2.13;1.88;;;-1.70;99.90;;;;;;5015054;28;20083;-61
2023/02/05 01:17:36;;;;;;;4.35;2.50;;;-1.70;99.90;;;;;;5018278;28;20029;-60
2023/02/05 01:20:02;;;;;;;2.63;1.85;;;-1.70;99.90;;;;;;5018065;28;20030;-62
2023/02/05 01:22:28;;;;;;;2.42;1.85;;;-1.70;99.90;;;;;;5018120;28;20026;-61
2023/02/05 01:24:53;;;;;;;3.33;2.35;;;-1.70;99.90;;;;;;5018706;28;20072;-62
2023/02/05 01:27:19;;;;;;;3.10;2.17;;;-1.70;99.90;;;;;;5018811;28;20039;-62
2023/02/05 01:29:44;;;;;;;2.95;1.98;;;-1.70;99.90;;;;;;5018577;28;20398;-60
2023/02/05 01:32:10;;;;;;;2.13;1.85;;;-1.80;99.90;;;;;;5018565;28;20583;-57
2023/02/05 01:34:35;;;;;;;2.90;1.90;;;-1.70;99.90;;;;;;5018373;28;20038;-61
2023/02/05 01:37:01;;;;;;;2.45;1.98;;;-1.70;99.90;;;;;;5018903;28;20021;-62
2023/02/05 01:39:27;;;;;;;2.25;1.90;;;-1.80;99.90;;;;;;5017656;28;20025;-61
2023/02/05 01:41:52;;;;;;;1.63;1.40;;;-1.70;99.90;;;;;;5017951;28;20014;-60
2023/02/05 01:44:23;;;;;;;4.70;2.10;;;-1.80;99.90;;;;;;5017580;28;20034;-60
2023/02/05 01:46:54;;;;;;;2.88;1.88;;;-1.80;99.90;;;;;;5016823;28;20024;-60
2023/02/05 01:49:34;;;;;;;2.97;2.05;;;-1.80;99.90;;;;;;5015296;28;20072;-61
2023/02/05 01:52:06;;;;;;;4.95;1.95;;;-1.80;99.90;;;;;;5017441;28;20503;-60
2023/02/05 01:54:35;;;;;;;2.38;1.65;;;-1.80;99.90;;;;;;5019189;28;20033;-60
2023/02/05 01:57:10;;;;;;;3.17;2.00;;;-1.80;99.90;;;;;;5018153;28;20029;-60
2023/02/05 01:59:39;;;;;;;3.95;1.45;;;-1.80;99.90;;;;;;5014454;28;20048;-61
2023/02/05 02:02:06;;;;;;;2.63;2.13;;;-1.80;99.90;;;;;;5016869;28;20057;-61
2023/02/05 02:04:43;;;;;;;2.00;1.70;;;-1.80;99.90;;;;;;5015927;28;20045;-57
2023/02/05 02:07:13;;;;;;;2.25;1.63;;;-1.80;99.90;;;;;;5018379;28;20571;-61
2023/02/05 02:09:44;;;;;;;2.20;1.42;;;-1.80;99.90;;;;;;5017176;28;20026;-60
2023/02/05 02:12:13;;;;;;;3.03;1.85;;;-1.80;99.90;;;;;;5018601;28;20032;-61
2023/02/05 02:14:41;;;;;;;1.85;1.60;;;-1.80;99.90;;;;;;5017490;28;20036;-62
2023/02/05 02:17:09;;;;;;;3.20;1.58;;;-1.80;99.90;;;;;;5017185;28;20068;-62
2023/02/05 02:19:44;;;;;;;2.40;1.67;;;-1.80;99.90;;;;;;5021216;28;20022;-62
2023/02/05 02:22:09;;;;;;;1.80;1.60;;;-1.80;99.90;;;;;;5022064;28;20060;-57
2023/02/05 02:25:03;;;;;;;1.50;1.25;;;-1.80;99.90;;;;;;5021650;28;20025;-61
2023/02/05 02:27:59;;;;;;;2.20;1.30;;;-1.70;99.90;;;;;;5021526;28;20036;-62
2023/02/05 02:30:40;;;;;;;2.38;1.73;;;-1.80;99.90;;;;;;5021042;28;20034;-61
2023/02/05 02:33:25;;;;;;;3.17;1.65;;;-1.70;99.90;;;;;;5021816;28;20029;-62
2023/02/05 02:35:55;;;;;;;2.58;1.52;;;-1.70;99.90;;;;;;5020998;28;20025;-62
2023/02/05 02:38:34;;;;;;;2.17;1.50;;;-1.60;99.90;;;;;;5020821;28;20025;-62
2023/02/05 02:41:17;;;;;;;1.50;1.40;;;-1.60;99.90;;;;;;5036000;28;20099;-61
2023/02/05 02:43:53;;;;;;;2.38;1.58;;;-1.60;99.90;;;;;;5020411;28;20051;-62
2023/02/05 02:46:23;;;;;;;2.67;1.70;;;-1.60;99.90;;;;;;5022007;28;20026;-60
2023/02/05 02:48:51;;;;;;;2.85;1.83;;;-1.60;99.90;;;;;;5021356;28;20118;-60
2023/02/05 02:51:19;;;;;;;3.80;1.58;;;-1.60;99.90;;;;;;5019935;28;20163;-62
2023/02/05 02:53:48;;;;;;;3.40;1.60;;;-1.50;99.90;;;;;;5019516;28;20030;-61
2023/02/05 02:56:16;;;;;;;3.17;1.55;;;-1.50;99.90;;;;;;5020994;28;20033;-61
2023/02/05 02:58:47;;;;;;;1.92;1.48;;;-1.50;99.90;;;;;;5020352;28;20064;-59
2023/02/05 03:01:14;;;;;;;3.13;1.88;;;-1.50;99.90;;;;;;5019802;28;20036;-61
2023/02/05 03:03:45;;;;;;;2.05;1.50;;;-1.50;99.90;;;;;;5021224;28;20566;-60
2023/02/05 03:06:13;;;;;;;3.55;2.10;;;-1.40;99.90;;;;;;5020685;28;20453;-61
2023/02/05 03:08:49;;;;;;;4.63;1.83;;;-1.50;99.90;;;;;;5020400;28;20033;-61
2023/02/05 03:11:15;;;;;;;2.20;1.75;;;-1.50;99.90;;;;;;5020437;28;20124;-61
2023/02/05 03:13:42;;;;;;;2.88;1.63;;;-1.50;99.90;;;;;;5021056;28;20460;-61
2023/02/05 03:16:08;;;;;;;2.75;1.65;;;-1.50;99.90;;;;;;5019847;28;20215;-60
2023/02/05 03:18:35;;;;;;;2.15;1.95;;;-1.50;99.90;;;;;;5034858;28;20029;-61
2023/02/05 03:21:07;;;;;;;1.98;1.77;;;-1.50;99.90;;;;;;5019812;28;20032;-61
2023/02/05 03:23:32;;;;;;;2.38;1.85;;;-1.50;99.90;;;;;;5021320;28;20500;-62
2023/02/05 03:25:58;;;;;;;3.60;1.83;;;-1.50;99.90;;;;;;5019823;28;20087;-61
2023/02/05 03:28:24;;;;;;;2.97;1.70;;;-1.50;99.90;;;;;;5021280;28;20496;-62
2023/02/05 03:31:07;;;;;;;3.13;1.90;;;-1.50;99.90;;;;;;5020712;28;20464;-61
2023/02/05 03:33:52;;;;;;;2.28;1.80;;;-1.50;99.90;;;;;;5020622;28;20033;-62
2023/02/05 03:36:28;;;;;;;2.33;1.87;;;-1.50;99.90;;;;;;5013367;28;20592;-60
2023/02/05 03:39:19;;;;;;;2.33;1.48;;;-1.50;99.90;;;;;;5020443;28;20033;-61
2023/02/05 03:42:08;;;;;;;3.45;1.90;;;-1.40;99.90;;;;;;5020397;28;20045;-61
2023/02/05 03:44:56;;;;;;;3.70;1.75;;;-1.40;99.90;;;;;;5019227;28;20561;-60
2023/02/05 03:47:54;;;;;;;1.73;1.60;;;-1.50;99.90;;;;;;5020611;28;20021;-61
2023/02/05 03:50:29;;;;;;;2.80;1.42;;;-1.50;99.90;;;;;;4990999;28;20029;-62
2023/02/05 03:53:05;;;;;;;1.60;1.40;;;-1.50;99.90;;;;;;5020767;28;20380;-60
2023/02/05 03:55:37;;;;;;;3.00;1.70;;;-1.50;99.90;;;;;;5019614;28;20372;-61
2023/02/05 03:58:38;;;;;;;2.33;1.65;;;-1.50;99.90;;;;;;5019760;28;20045;-60
2023/02/05 04:01:05;;;;;;;2.22;1.65;;;-1.50;99.90;;;;;;5009099;28;20504;-60
2023/02/05 04:03:30;;;;;;;3.35;1.55;;;-1.60;99.90;;;;;;5020585;28;20029;-60
2023/02/05 04:05:56;;;;;;;3.15;1.50;;;-1.60;99.90;;;;;;5020641;28;20396;-62
2023/02/05 04:08:21;;;;;;;2.45;2.08;;;-1.60;99.90;;;;;;5019380;28;20022;-62
2023/02/05 04:10:47;;;;;;;2.50;1.80;;;-1.60;99.90;;;;;;5019530;28;20030;-59
2023/02/05 04:13:12;;;;;;;2.10;1.92;;;-1.60;99.90;;;;;;5020226;28;20034;-60
2023/02/05 04:15:38;;;;;;;2.53;1.92;;;-1.60;99.90;;;;;;5019140;28;20029;-61
2023/02/05 04:18:04;;;;;;;3.65;2.03;;;-1.60;99.90;;;;;;5019958;28;20029;-61
2023/02/05 04:20:29;;;;;;;2.97;1.77;;;-1.60;99.90;;;;;;5019978;28;20633;-60
2023/02/05 04:22:55;;;;;;;2.00;1.60;;;-1.60;99.90;;;;;;5019930;28;20034;-62
2023/02/05 04:25:20;;;;;;;2.63;1.90;;;-1.60;99.90;;;;;;5020237;28;20558;-59
2023/02/05 04:27:46;;;;;;;4.70;2.20;;;-1.60;99.90;;;;;;5019157;28;20040;-61
2023/02/05 04:30:12;;;;;;;1.73;1.60;;;-1.60;99.90;;;;;;5019135;28;20370;-62
2023/02/05 04:32:37;;;;;;;3.70;2.10;;;-1.60;99.90;;;;;;5019045;28;20033;-61
2023/02/05 04:35:03;;;;;;;2.83;1.90;;;-1.50;99.90;;;;;;5019136;28;20034;-60
2023/02/05 04:37:28;;;;;;;2.67;1.60;;;-1.50;99.90;;;;;;5017336;28;20069;-59
2023/02/05 04:39:54;;;;;;;2.92;1.90;;;-1.50;99.90;;;;;;5019559;28;20072;-59
2023/02/05 04:42:19;;;;;;;3.42;1.83;;;-1.50;99.90;;;;;;5018364;28;20571;-61
2023/02/05 04:44:45;;;;;;;2.47;2.00;;;-1.40;99.90;;;;;;5019663;28;20507;-59
2023/02/05 04:47:12;;;;;;;1.77;1.67;;;-1.40;99.90;;;;;;5019457;28;20083;-62
2023/02/05 04:49:39;;;;;;;3.10;1.85;;;-1.50;99.90;;;;;;5017321;28;20148;-61
2023/02/05 04:52:06;;;;;;;2.30;1.90;;;-1.40;99.90;;;;;;5017976;28;20100;-62
2023/02/05 04:54:31;;;;;;;2.08;1.50;;;-1.50;99.90;;;;;;5018798;28;20121;-62
2023/02/05 04:56:57;;;;;;;2.90;2.17;;;-1.40;99.90;;;;;;5019348;28;20101;-61
2023/02/05 04:59:23;;;;;;;2.40;1.80;;;-1.40;99.90;;;;;;5018069;28;20544;-61
2023/02/05 05:01:48;;;;;;;2.92;1.63;;;-1.40;99.90;;;;;;5033525;22;20144;-50
2023/02/05 05:04:14;;;;;;;3.40;1.80;;;-1.40;99.90;;;;;;5016895;28;20431;-50
2023/02/05 05:06:39;;;;;;;3.42;1.80;;;-1.40;99.90;;;;;;5019029;28;20025;-51
2023/02/05 05:09:05;;;;;;;3.30;2.00;;;-1.40;99.90;;;;;;5018220;28;20029;-51
2023/02/05 05:11:31;;;;;;;4.97;2.03;;;-1.40;99.90;;;;;;5018807;28;20112;-54
2023/02/05 05:13:56;;;;;;;2.20;1.70;;;-1.40;99.90;;;;;;5019110;28;20484;-53
2023/02/05 05:16:22;;;;;;;2.08;1.60;;;-1.40;99.90;;;;;;5018072;28;20052;-51
2023/02/05 05:18:50;;;;;;;2.40;1.80;;;-1.40;99.90;;;;;;5018235;28;20025;-51
2023/02/05 05:21:16;;;;;;;3.20;1.77;;;-1.30;99.90;;;;;;5019157;28;20044;-50
2023/02/05 05:23:42;;;;;;;2.50;1.65;;;-1.30;99.90;;;;;;5017064;28;20025;-52
2023/02/05 05:26:10;;;;;;;4.28;1.83;;;-1.30;99.90;;;;;;5016533;28;20032;-51
2023/02/05 05:28:37;;;;;;;2.80;1.98;;;-1.30;99.90;;;;;;5017006;28;20050;-55
2023/02/05 05:31:12;;;;;;;2.50;1.65;;;-1.30;99.90;;;;;;5018617;28;20018;-52
2023/02/05 05:33:38;;;;;;;4.85;2.00;;;-1.30;99.90;;;;;;5015907;28;20064;-53
2023/02/05 05:36:05;;;;;;;3.85;2.05;;;-1.30;99.90;;;;;;5018883;28;20065;-50
2023/02/05 05:38:30;;;;;;;4.70;2.20;;;-1.30;99.90;;;;;;5017602;28;20057;-52
2023/02/05 05:43:46;;;;;;;3.20;2.15;;;-1.30;99.90;;;;;;5018105;28;20415;-53
2023/02/05 05:46:20;;;;;;;3.17;2.22;;;-1.30;99.90;;;;;;5017985;28;20044;-53
2023/02/05 05:48:50;;;;;;;3.45;2.20;;;-1.30;99.90;;;;;;5015141;28;20030;-53
2023/02/05 05:51:16;;;;;;;3.50;2.38;;;-1.30;99.90;;;;;;5016121;28;20057;-51
2023/02/05 05:53:42;;;;;;;3.33;2.10;;;-1.20;99.90;;;;;;5015498;28;20030;-54
2023/02/05 05:56:07;;;;;;;3.22;2.08;;;-1.20;99.90;;;;;;5018676;28;20079;-50
2023/02/05 05:58:33;;;;;;;4.72;2.10;;;-1.20;99.90;;;;;;5018535;28;20238;-53
2023/02/05 06:00:59;;;;;;;2.05;1.77;;;-1.20;99.90;;;;;;5017489;28;20021;-52
2023/02/05 06:03:25;;;;;;;2.70;2.13;;;-1.20;99.90;;;;;;5017725;28;20507;-52
2023/02/05 06:05:51;;;;;;;3.72;2.53;;;-1.20;99.90;;;;;;5017326;28;20018;-52
2023/02/05 06:08:17;;;;;;;3.13;1.95;;;-1.20;99.90;;;;;;5017284;28;20041;-55
2023/02/05 06:10:43;;;;;;;4.30;2.25;;;-1.20;99.90;;;;;;5016989;28;20030;-52
2023/02/05 06:13:08;;;;;;;2.67;2.28;;;-1.10;99.90;;;;;;5018158;28;20029;-51
2023/02/05 06:15:34;;;;;;;5.40;2.28;;;-1.10;99.90;;;;;;5018162;28;20040;-51
2023/02/05 06:17:59;;;;;;;7.28;2.55;;;-1.10;99.90;;;;;;5017717;28;20025;-51
2023/02/05 06:20:25;;;;;;;3.38;2.13;;;-1.20;99.90;;;;;;5017039;28;20033;-51
2023/02/05 06:22:50;;;;;;;3.38;2.47;;;-1.20;99.90;;;;;;5018033;28;20021;-52
2023/02/05 06:25:16;;;;;;;3.15;1.95;;;-1.10;99.90;;;;;;5017873;28;20156;-52
2023/02/05 06:27:42;;;;;;;2.65;2.17;;;-1.20;99.90;;;;;;5018632;28;20479;-51
2023/02/05 06:30:09;;;;;;;4.57;2.28;;;-1.20;99.90;;;;;;5016975;28;20044;-53
2023/02/05 06:32:34;;;;;;;3.35;2.13;;;-1.20;99.90;;;;;;5017110;28;20037;-51
2023/02/05 06:35:00;;;;;;;3.67;2.08;;;-1.20;99.90;;;;;;5017997;28;20014;-54
2023/02/05 06:37:28;;;;;;;2.22;1.90;;;-1.20;99.90;;;;;;5017495;28;20211;-50
2023/02/05 06:39:54;;;;;;;3.95;2.42;;;-1.20;99.90;;;;;;5017091;28;20076;-51
2023/02/05 06:42:19;;;;;;;2.35;1.90;;;-1.20;99.90;;;;;;5017589;28;20026;-50
2023/02/05 06:44:45;;;;;;;4.28;2.67;;;-1.20;99.90;;;;;;5016394;28;20406;-54
2023/02/05 06:47:11;;;;;;;3.28;2.00;;;-1.20;99.90;;;;;;5018616;28;20053;-54
2023/02/05 06:49:36;;;;;;;2.88;2.33;;;-1.20;99.90;;;;;;5012337;28;20028;-54
2023/02/05 06:52:02;;;;;;;2.20;1.52;;;-1.20;99.90;;;;;;5016840;28;20030;-53
2023/02/05 06:54:28;;;;;;;2.90;2.13;;;-1.10;99.90;;;;;;5016383;28;20112;-52
2023/02/05 06:56:53;;;;;;;1.92;1.77;;;-1.10;99.90;;;;;;5017342;28;20079;-49
2023/02/05 06:59:19;;;;;;;4.20;1.92;;;-1.10;99.90;;;;;;5016022;28;20072;-52
2023/02/05 07:01:44;;;;;;;6.43;2.55;;;-1.10;99.90;;;;;;5016999;28;20137;-50
2023/02/05 07:04:10;;;;;;;4.07;2.30;;;-1.10;99.90;;;;;;5018418;28;20068;-50
2023/02/05 07:06:35;;;;;;;2.92;2.35;;;-1.10;99.90;;;;;;5021687;28;20021;-52
2023/02/05 07:09:01;;;;;;;2.30;2.10;;;-1.10;99.90;;;;;;5019964;28;20053;-55
2023/02/05 07:11:27;;;;;;;4.18;2.45;;;-1.10;99.90;;;;;;5019361;28;20021;-50
2023/02/05 07:13:53;;;;;;;2.17;1.98;;;-1.10;99.90;;;;;;5020343;28;20554;-53
2023/02/05 07:16:18;;;;;;;4.38;2.40;;;-1.10;99.90;;;;;;5020739;28;20059;-52
2023/02/05 07:18:44;;;;;;;3.63;2.30;;;-1.10;99.90;;;;;;5021207;28;20030;-52
2023/02/05 07:21:14;;;;;;;3.25;2.47;;;-1.10;99.90;;;;;;5020460;28;20021;-51
2023/02/05 07:23:40;;;;;;;4.15;2.42;;;-1.10;99.90;;;;;;5018957;28;20026;-50
2023/02/05 07:26:12;;;;;;;3.75;2.28;;;-1.00;99.90;;;;;;5019700;28;20072;-53
2023/02/05 07:28:37;;;;;;;2.65;1.92;;;-1.00;99.90;;;;;;5020304;28;20022;-50
2023/02/05 07:31:09;;;;;;;2.85;2.20;;;-1.00;99.90;;;;;;5017434;28;20022;-53
2023/02/05 07:33:37;;;;;;;3.10;2.13;;;-1.00;99.90;;;;;;5019888;28;20527;-51
2023/02/05 07:36:08;;;;;;;2.63;2.13;;;-1.00;99.90;;;;;;5020544;28;20033;-51
2023/02/05 07:38:35;;;;;;;4.20;2.38;;;-1.00;99.90;;;;;;5018976;28;20297;-52
2023/02/05 07:41:05;;;;;;;3.22;2.45;;;-1.00;99.90;;;;;;5020091;28;20018;-50
2023/02/05 07:43:31;;;;;;;3.58;2.08;;;-1.00;99.90;;;;;;5019283;28;20113;-50
2023/02/05 07:46:01;;;;;;;3.22;1.98;;;-0.90;99.90;;;;;;5021263;28;20483;-54
2023/02/05 07:48:27;;;;;;;3.92;2.45;;;-0.90;99.90;;;;;;5018033;28;20029;-51
2023/02/05 07:50:53;;;;;;;4.22;2.60;;;-0.90;99.90;;;;;;5020203;28;20080;-50
2023/02/05 07:53:19;;;;;;;3.85;2.30;;;-0.90;99.90;;;;;;5020091;28;20116;-51
2023/02/05 07:55:45;;;;;;;4.65;2.40;;;-0.90;99.90;;;;;;5019300;28;20188;-53
2023/02/05 07:58:10;;;;;;;3.33;2.40;;;-0.90;99.90;;;;;;5019004;28;20017;-53
2023/02/05 08:00:36;;;;;;;2.20;1.90;;;-0.90;99.90;;;;;;5019485;28;20117;-54
2023/02/05 08:03:02;;;;;;;4.10;2.25;;;-0.90;99.90;;;;;;5034068;28;20515;-51
2023/02/05 08:05:27;;;;;;;3.47;2.28;;;-0.80;99.90;;;;;;5017833;28;20506;-50
2023/02/05 08:07:53;;;;;;;2.83;2.50;;;-0.80;99.90;;;;;;5019835;28;20014;-51
2023/02/05 08:10:19;;;;;;;4.78;2.67;;;-0.80;99.90;;;;;;5019952;28;20021;-51
2023/02/05 08:12:45;;;;;;;3.95;2.45;;;-0.80;99.90;;;;;;5018919;28;20416;-57
2023/02/05 08:15:11;;;;;;;3.13;2.70;;;-0.70;99.90;;;;;;5019621;28;20071;-51
2023/02/05 08:17:36;;;;;;;4.53;2.70;;;-0.70;99.90;;;;;;5020135;28;20037;-51
2023/02/05 08:20:06;;;;;;;3.72;2.60;;;-0.70;99.90;;;;;;5019356;28;20040;-50
2023/02/05 08:22:37;;;;;;;5.18;3.08;;;-0.70;99.90;;;;;;5025139;28;20040;-51
2023/02/05 08:25:05;;;;;;;3.38;2.72;;;-0.70;99.90;;;;;;5018458;28;20030;-50
2023/02/05 08:27:35;;;;;;;2.88;2.58;;;-0.60;99.90;;;;;;5017053;28;20369;-51
2023/02/05 08:30:02;;;;;;;3.42;2.58;;;-0.60;99.90;;;;;;5018483;28;20029;-54
2023/02/05 08:32:28;;;;;;;3.85;3.42;;;-0.60;99.90;;;;;;5017747;28;20124;-51
2023/02/05 08:34:53;;;;;;;4.32;2.95;;;-0.60;99.90;;;;;;5019115;28;20459;-55
2023/02/05 08:37:19;;;;;;;5.32;2.88;;;-0.50;99.90;;;;;;5019261;28;20072;-51
2023/02/05 08:39:45;;;;;;;4.22;2.95;;;-0.50;99.90;;;;;;5019502;28;20030;-52
2023/02/05 08:42:11;;;;;;;3.40;2.60;;;-0.50;99.90;;;;;;5018877;28;20031;-53
2023/02/05 08:44:37;;;;;;;5.53;2.58;;;-0.50;99.90;;;;;;5019398;28;20116;-54
2023/02/05 08:47:02;;;;;;;3.33;2.70;;;-0.40;99.90;;;;;;5019685;28;20456;-52
2023/02/05 08:49:28;;;;;;;4.57;2.63;;;-0.40;99.90;;;;;;5017289;28;20030;-52
2023/02/05 08:51:54;;;;;;;4.30;2.53;;;-0.30;99.90;;;;;;5019577;28;20050;-54
2023/02/05 08:54:19;;;;;;;3.75;2.70;;;-0.30;99.90;;;;;;5017938;28;20385;-52
2023/02/05 08:56:48;;;;;;;4.32;3.03;;;-0.30;99.90;;;;;;5017240;28;20465;-52
2023/02/05 08:59:14;;;;;;;3.58;2.92;;;-0.20;99.90;;;;;;5016625;28;20052;-54
2023/02/05 09:01:41;;;;;;;6.03;2.40;;;-0.20;99.90;;;;;;5017452;28;20034;-52
2023/02/05 09:04:07;;;;;;;3.35;2.55;;;-0.20;99.90;;;;;;5016731;28;20025;-51
2023/02/05 09:06:34;;;;;;;4.22;2.60;;;-0.20;99.90;;;;;;5018297;28;20034;-52
2023/02/05 09:08:59;;;;;;;4.25;3.00;;;-0.10;99.90;;;;;;5017341;28;20113;-53
2023/02/05 09:11:29;;;;;;;2.63;2.42;;;-0.10;99.90;;;;;;5017458;28;20021;-54
2023/02/05 09:13:56;;;;;;;2.92;2.42;;;-0.10;99.90;;;;;;5019047;28;20041;-54
2023/02/05 09:16:21;;;;;;;3.08;2.40;;;0.00;99.90;;;;;;5018936;28;20488;-55
2023/02/05 09:18:47;;;;;;;4.45;2.50;;;0.00;99.90;;;;;;5017857;28;20018;-57
2023/02/05 09:21:13;;;;;;;2.78;2.25;;;0.00;99.90;;;;;;5019893;28;20022;-57
2023/02/05 09:23:38;;;;;;;3.70;2.88;;;0.10;99.90;;;;;;5017852;28;20025;-53
2023/02/05 09:26:05;;;;;;;6.45;2.65;;;0.10;99.90;;;;;;5018898;28;20099;-56
2023/02/05 09:28:31;;;;;;;3.75;3.00;;;0.20;99.90;;;;;;5017914;28;20022;-52
2023/02/05 09:30:57;;;;;;;3.40;2.38;;;0.20;99.90;;;;;;5018318;28;20044;-55
2023/02/05 09:33:23;;;;;;;6.05;3.25;;;0.30;99.90;;;;;;5017492;28;20487;-55
2023/02/05 09:35:48;;;;;;;4.15;2.78;;;0.30;99.90;;;;;;5018574;28;20033;-53
2023/02/05 09:38:16;;;;;;;3.00;2.45;;;0.30;99.90;;;;;;5017620;28;20030;-52
2023/02/05 09:41:00;;;;;;;4.35;2.67;;;0.40;99.90;;;;;;5018908;28;20034;-53
2023/02/05 09:43:41;;;;;;;3.90;2.35;;;0.40;99.90;;;;;;5017934;28;20057;-54
2023/02/05 09:46:20;;;;;;;6.43;2.40;;;0.40;99.90;;;;;;5018733;28;20412;-55
2023/02/05 09:48:50;;;;;;;4.50;2.53;;;0.40;99.90;;;;;;5017627;28;20033;-56
2023/02/05 09:51:20;;;;;;;3.28;2.97;;;0.50;99.90;;;;;;5016903;28;20018;-56
2023/02/05 09:53:56;;;;;;;3.55;2.30;;;0.50;99.90;;;;;;5018446;28;20072;-53
2023/02/05 09:56:23;;;;;;;3.30;2.60;;;0.50;99.90;;;;;;5017197;28;20037;-57
2023/02/05 09:58:52;;;;;;;3.88;2.55;;;0.60;99.90;;;;;;5018376;28;20104;-53
2023/02/05 10:01:23;;;;;;;2.90;2.60;;;0.60;99.90;;;;;;5017685;28;20453;-56
2023/02/05 10:03:57;;;;;;;3.35;2.55;;;0.60;99.90;;;;;;5015867;28;20249;-54
2023/02/05 10:06:47;;;;;;;2.78;2.50;;;0.60;99.90;;;;;;5016536;28;20054;-54
2023/02/05 10:09:25;;;;;;;4.30;3.13;;;0.70;99.90;;;;;;5018328;28;20022;-53
2023/02/05 10:12:10;;;;;;;5.38;2.75;;;0.70;99.90;;;;;;5017229;28;20029;-52
2023/02/05 10:14:44;;;;;;;5.03;3.00;;;0.70;99.90;;;;;;5016922;28;20022;-56
2023/02/05 10:17:28;;;;;;;6.00;2.80;;;0.70;99.90;;;;;;5018489;28;20025;-54
2023/02/05 10:20:22;;;;;;;4.53;3.28;;;0.70;99.90;;;;;;5017829;28;20443;-54
2023/02/05 10:22:54;;;;;;;4.32;2.95;;;0.80;99.90;;;;;;5017491;28;20044;-52
2023/02/05 10:25:47;;;;;;;3.97;3.10;;;0.80;99.90;;;;;;5018163;28;20091;-53
2023/02/05 10:28:28;;;;;;;3.85;3.35;;;0.80;99.90;;;;;;5019161;28;20109;-54
2023/02/05 10:31:15;;;;;;;6.72;3.35;;;0.90;99.90;;;;;;5016195;28;20109;-53
2023/02/05 10:33:49;;;;;;;2.97;2.72;;;0.90;99.90;;;;;;5016728;28;20166;-53
2023/02/05 10:36:20;;;;;;;4.28;3.03;;;1.00;99.90;;;;;;5017867;28;20495;-56
2023/02/05 10:38:49;;;;;;;2.97;2.67;;;1.00;99.90;;;;;;5017112;28;20514;-58
2023/02/05 10:41:31;;;;;;;5.30;3.15;;;1.00;99.90;;;;;;5021391;28;20030;-54
2023/02/05 10:44:15;;;;;;;4.15;2.83;;;1.10;99.90;;;;;;5021210;28;20017;-56
2023/02/05 10:46:50;;;;;;;5.75;3.03;;;1.20;99.90;;;;;;5020372;28;20033;-55
2023/02/05 10:49:39;;;;;;;5.25;3.17;;;1.20;99.90;;;;;;5021285;28;20021;-52
2023/02/05 10:52:12;;;;;;;5.28;3.65;;;1.30;99.90;;;;;;5019753;28;20025;-54
2023/02/05 10:54:39;;;;;;;4.60;3.17;;;1.30;99.90;;;;;;5021306;28;20214;-54
2023/02/05 10:57:14;;;;;;;5.07;3.35;;;1.40;99.90;;;;;;5019991;28;20419;-55
2023/02/05 11:00:04;;;;;;;5.38;3.50;;;1.40;99.90;;;;;;5020997;28;20032;-54
2023/02/05 11:05:03;;;;;;;4.90;3.30;;;1.40;99.90;;;;;;5000416;28;20065;-64
2023/02/05 11:07:45;;;;;;;5.55;3.72;;;1.40;99.90;;;;;;5001159;28;20030;-65
2023/02/05 11:10:26;;;;;;;3.80;3.30;;;1.40;99.90;;;;;;5001697;28;20045;-63
2023/02/05 11:12:55;;;;;;;6.55;3.67;;;1.40;99.90;;;;;;5001776;28;20056;-64
2023/02/05 11:15:26;;;;;;;7.10;3.97;;;1.40;99.90;;;;;;5001012;28;20050;-64
2023/02/05 11:18:04;;;;;;;6.07;3.45;;;1.40;99.90;;;;;;5001813;28;20022;-63
2023/02/05 11:20:39;;;;;;;5.18;3.70;;;1.40;99.90;;;;;;5000083;28;20429;-64
2023/02/05 11:23:20;;;;;;;4.65;3.30;;;1.50;99.90;;;;;;5000230;28;20022;-63
2023/02/05 11:26:00;;;;;;;3.90;2.97;;;1.50;99.90;;;;;;4999980;28;20060;-63
2023/02/05 11:28:38;;;;;;;4.50;3.97;;;1.50;99.90;;;;;;5001006;28;20054;-64
2023/02/05 11:31:24;;;;;;;4.00;3.28;;;1.50;99.90;;;;;;4999605;28;20065;-64
2023/02/05 11:33:50;;;;;;;6.27;4.00;;;1.50;99.90;;;;;;5000549;28;20025;-64
2023/02/05 11:36:22;;;;;;;7.30;4.50;;;1.60;99.90;;;;;;5000748;28;20025;-64
2023/02/05 11:38:51;;;;;;;5.25;4.25;;;1.60;99.90;;;;;;5001216;28;20468;-65
2023/02/05 11:41:47;;;;;;;4.47;3.53;;;1.60;99.90;;;;;;5001058;28;20484;-64
2023/02/05 11:44:17;;;;;;;3.55;3.25;;;1.60;99.90;;;;;;5002282;28;20029;-64
2023/02/05 11:46:44;;;;;;;6.40;3.75;;;1.60;99.90;;;;;;5001746;28;20049;-63
2023/02/05 11:49:21;;;;;;;7.80;4.97;;;1.70;99.90;;;;;;5000925;28;20026;-64
2023/02/05 11:51:51;;;;;;;5.50;4.15;;;1.70;99.90;;;;;;4999896;28;20076;-63
2023/02/05 11:54:30;;;;;;;5.47;3.55;;;1.70;99.90;;;;;;5001152;28;20028;-62
2023/02/05 11:57:00;;;;;;;5.38;4.22;;;1.80;99.90;;;;;;5001584;28;20105;-63
2023/02/05 11:59:26;;;;;;;5.30;3.90;;;1.80;99.90;;;;;;5000573;28;20077;-64
2023/02/05 12:01:51;;;;;;;5.15;3.65;;;1.80;99.90;;;;;;5000425;28;20022;-63
2023/02/05 12:04:19;;;;;;;4.38;3.53;;;1.80;99.90;;;;;;5000670;28;20108;-63
2023/02/05 12:06:47;;;;;;;5.30;3.63;;;1.80;99.90;;;;;;5001042;28;20034;-63
2023/02/05 12:09:18;;;;;;;5.32;3.30;;;1.80;99.90;;;;;;5000399;28;20050;-63
2023/02/05 12:11:59;;;;;;;7.63;3.60;;;1.90;99.90;;;;;;4999383;28;20099;-62
2023/02/05 12:15:09;;;;;;;3.78;3.30;;;1.90;99.90;;;;;;4999959;28;20054;-60
2023/02/05 12:17:58;;;;;;;5.25;3.45;;;1.90;99.90;;;;;;4996747;28;20077;-63
2023/02/05 12:20:58;;;;;;;3.95;3.35;;;2.00;99.90;;;;;;5000268;28;20087;-63
2023/02/05 12:23:39;;;;;;;6.13;3.75;;;2.00;99.90;;;;;;5000439;28;20065;-64
2023/02/05 12:26:24;;;;;;;5.47;3.67;;;2.00;99.90;;;;;;4999893;28;20102;-61
2023/02/05 12:29:01;;;;;;;5.00;4.13;;;2.00;99.90;;;;;;4999587;28;20040;-63
2023/02/05 12:31:55;;;;;;;3.95;3.17;;;2.00;99.90;;;;;;5000833;28;20022;-63
2023/02/05 12:34:32;;;;;;;4.70;3.40;;;1.90;99.90;;;;;;4999931;28;20052;-63
2023/02/05 12:37:29;;;;;;;4.63;4.03;;;1.90;99.90;;;;;;4999954;28;20061;-62
2023/02/05 12:40:08;;;;;;;6.10;3.10;;;2.00;99.90;;;;;;4997600;28;20431;-63
2023/02/05 12:42:49;;;;;;;5.05;3.50;;;2.00;99.90;;;;;;5000126;28;20034;-62
2023/02/05 12:45:30;;;;;;;5.28;3.33;;;2.00;99.90;;;;;;5000354;28;20028;-61
2023/02/05 12:48:01;;;;;;;4.72;3.58;;;2.00;99.90;;;;;;4998981;28;20029;-62
2023/02/05 12:50:46;;;;;;;4.57;3.50;;;2.10;99.90;;;;;;4999096;28;20535;-62
2023/02/05 12:53:25;;;;;;;4.35;3.33;;;2.10;99.90;;;;;;4999988;28;20118;-58
2023/02/05 12:56:12;;;;;;;6.25;3.63;;;2.20;99.90;;;;;;5000130;28;20121;-60
2023/02/05 12:58:53;;;;;;;4.05;3.25;;;2.20;99.90;;;;;;4999325;28;20561;-61
2023/02/05 13:01:41;;;;;;;7.70;3.55;;;2.20;99.90;;;;;;4998933;28;20022;-61
2023/02/05 13:04:28;;;;;;;3.97;3.50;;;2.30;99.90;;;;;;4997726;28;20547;-61
2023/02/05 13:07:04;;;;;;;5.40;3.60;;;2.30;99.90;;;;;;4999821;28;20026;-62
2023/02/05 13:09:42;;;;;;;3.65;3.15;;;2.30;99.90;;;;;;4999122;28;20026;-61
2023/02/05 13:12:12;;;;;;;6.00;2.85;;;2.30;99.90;;;;;;4997526;28;20026;-62
2023/02/05 13:15:04;;;;;;;4.20;3.35;;;2.30;99.90;;;;;;4998375;28;20049;-62